Terminal Aerodrome Forecast
Issued by NWS

Home | Current Version | Previous Version | Text Only | Print | Product List | Glossary On
Versions: 1 2 3 4 5 6 7 8 9 10 11 12 13 14
000
FTUS43 KDTX 281726
TAFDET
TAF
KDET 281726Z 2818/2918 17005KT P6SM SCT120 BKN200
     FM290200 16008KT P6SM BKN080 OVC120
     FM291000 16011G19KT P6SM BKN045 OVC080
     FM291300 17012KT 4SM -FZRAPL BKN030 OVC045
     FM291600 21010KT 2SM -RA BR BKN008 OVC022=

USA.gov is the U.S. government's official web portal to all federal, state and local government web resources and services.